createdAt,value
2018-12-12T00:01:25.263Z,4.27
2018-12-12T00:03:53.887Z,4.57
2018-12-12T00:06:22.487Z,4.57
2018-12-12T00:08:51.078Z,4.80
2018-12-12T00:11:19.822Z,4.50
2018-12-12T00:13:48.431Z,5.33
2018-12-12T00:16:17.035Z,4.57
2018-12-12T00:18:45.678Z,4.87
2018-12-12T00:21:14.337Z,4.40
2018-12-12T00:23:43.090Z,4.63
2018-12-12T00:26:11.738Z,4.73
2018-12-12T00:28:40.381Z,4.90
2018-12-12T00:31:09.002Z,4.73
2018-12-12T00:33:37.678Z,4.83
2018-12-12T00:36:06.282Z,4.87
2018-12-12T00:38:34.920Z,5.17
2018-12-12T00:41:03.563Z,4.83
2018-12-12T00:43:32.184Z,4.73
2018-12-12T00:46:00.827Z,4.70
2018-12-12T00:48:29.445Z,5.23
2018-12-12T00:50:58.050Z,5.17
2018-12-12T00:53:26.743Z,5.33
2018-12-12T00:55:55.414Z,5.17
2018-12-12T00:58:24.036Z,5.67
2018-12-12T01:00:52.659Z,4.70
2018-12-12T01:03:21.315Z,5.33
2018-12-12T01:05:49.927Z,4.60
2018-12-12T01:08:18.540Z,5.87
2018-12-12T01:10:49.209Z,4.77
2018-12-12T01:13:17.825Z,5.00
2018-12-12T01:15:46.465Z,4.67
2018-12-12T01:18:15.098Z,5.13
2018-12-12T01:20:43.747Z,4.50
2018-12-12T01:23:12.330Z,4.93
2018-12-12T01:25:41.070Z,5.90
2018-12-12T01:28:09.679Z,5.47
2018-12-12T01:30:38.280Z,5.60
2018-12-12T01:33:06.903Z,4.97
2018-12-12T01:35:35.523Z,5.50
2018-12-12T01:38:04.166Z,5.30
2018-12-12T01:40:32.767Z,5.80
2018-12-12T01:43:01.377Z,5.63
2018-12-12T01:45:30.151Z,5.60
2018-12-12T01:47:58.803Z,5.80
2018-12-12T01:50:27.406Z,5.57
2018-12-12T01:52:56.031Z,5.93
2018-12-12T01:55:24.634Z,4.80
2018-12-12T01:57:53.274Z,5.60
2018-12-12T02:00:21.854Z,5.87
2018-12-12T02:02:50.451Z,5.47
2018-12-12T02:05:19.105Z,5.63
2018-12-12T02:07:47.734Z,5.87
2018-12-12T02:10:16.594Z,5.73
2018-12-12T02:12:51.633Z,5.33
2018-12-12T02:15:20.245Z,5.77
2018-12-12T02:17:48.854Z,5.40
2018-12-12T02:20:17.488Z,5.57
2018-12-12T02:22:46.135Z,5.50
2018-12-12T02:25:14.760Z,5.90
2018-12-12T02:27:43.402Z,6.67
2018-12-12T02:30:12.055Z,5.73
2018-12-12T02:32:40.669Z,6.50
2018-12-12T02:35:09.286Z,6.00
2018-12-12T02:37:37.912Z,5.30
2018-12-12T02:40:06.766Z,5.60
2018-12-12T02:42:35.367Z,6.77
2018-12-12T02:45:04.221Z,5.90
2018-12-12T02:47:32.827Z,6.30
2018-12-12T02:50:01.455Z,5.97
2018-12-12T02:52:30.074Z,5.87
2018-12-12T02:54:58.678Z,5.70
2018-12-12T02:57:27.334Z,5.57
2018-12-12T02:59:55.958Z,5.20
2018-12-12T03:02:25.030Z,4.63
2018-12-12T03:04:53.677Z,5.13
2018-12-12T03:07:22.295Z,5.87
2018-12-12T03:09:50.911Z,4.70
2018-12-12T03:12:19.513Z,4.83
2018-12-12T03:14:48.174Z,5.00
2018-12-12T03:17:16.803Z,5.13
2018-12-12T03:19:45.414Z,4.97
2018-12-12T03:22:14.025Z,4.93
2018-12-12T03:24:42.670Z,5.07
2018-12-12T03:27:11.291Z,5.43
2018-12-12T03:29:39.891Z,4.43
2018-12-12T03:32:08.485Z,5.30
2018-12-12T03:34:37.098Z,5.83
2018-12-12T03:37:05.725Z,5.30
2018-12-12T03:39:34.350Z,5.57
2018-12-12T03:42:03.088Z,6.83
2018-12-12T03:44:31.697Z,6.60
2018-12-12T03:47:00.318Z,6.70
2018-12-12T03:49:28.911Z,6.60
2018-12-12T03:51:57.525Z,6.07
2018-12-12T03:54:26.131Z,6.03
2018-12-12T03:56:54.709Z,6.30
2018-12-12T03:59:23.298Z,5.77
2018-12-12T04:01:51.905Z,5.70
2018-12-12T04:04:20.530Z,5.50
2018-12-12T04:06:49.162Z,5.47
2018-12-12T04:09:17.782Z,5.13
2018-12-12T04:11:46.404Z,4.60
2018-12-12T04:14:15.011Z,5.00
2018-12-12T04:16:44.039Z,4.83
2018-12-12T04:19:12.691Z,5.00
2018-12-12T04:21:41.327Z,5.13
2018-12-12T04:24:09.961Z,4.93
2018-12-12T04:26:38.591Z,5.97
2018-12-12T04:29:07.224Z,5.33
2018-12-12T04:31:35.893Z,4.87
2018-12-12T04:34:04.611Z,5.30
2018-12-12T04:36:33.235Z,6.10
2018-12-12T04:39:01.842Z,4.80
2018-12-12T04:41:30.483Z,5.60
2018-12-12T04:43:59.070Z,5.63
2018-12-12T04:46:27.701Z,5.53
2018-12-12T04:48:56.322Z,5.00
2018-12-12T04:51:25.062Z,6.13
2018-12-12T04:53:53.664Z,6.70
2018-12-12T04:56:22.287Z,5.73
2018-12-12T04:58:51.134Z,5.60
2018-12-12T05:01:19.750Z,5.57
2018-12-12T05:03:48.361Z,5.90
2018-12-12T05:06:17.007Z,6.67
2018-12-12T05:08:45.605Z,5.43
2018-12-12T05:11:14.225Z,6.30
2018-12-12T05:13:42.837Z,6.13
2018-12-12T05:16:11.466Z,6.20
2018-12-12T05:18:40.074Z,6.80
2018-12-12T05:21:08.681Z,7.10
2018-12-12T05:23:37.331Z,6.07
2018-12-12T05:26:05.951Z,6.40
2018-12-12T05:28:34.565Z,6.73
2018-12-12T05:31:03.226Z,7.13
2018-12-12T05:33:31.855Z,7.07
2018-12-12T05:36:00.479Z,6.67
2018-12-12T05:38:29.086Z,7.23
2018-12-12T05:40:57.699Z,7.37
2018-12-12T05:43:26.291Z,7.83
2018-12-12T05:45:54.890Z,8.70
2018-12-12T05:48:23.502Z,7.97
2018-12-12T05:50:52.137Z,7.80
2018-12-12T05:53:20.737Z,7.93
2018-12-12T05:55:49.373Z,8.33
2018-12-12T05:58:17.994Z,8.20
2018-12-12T06:00:46.790Z,8.67
2018-12-12T06:03:15.402Z,8.50
2018-12-12T06:05:44.059Z,9.43
2018-12-12T06:08:12.694Z,9.23
2018-12-12T06:10:41.293Z,8.93
2018-12-12T06:13:09.940Z,9.50
2018-12-12T06:15:38.595Z,9.47
2018-12-12T06:18:07.217Z,10.03
2018-12-12T06:20:35.937Z,11.20
2018-12-12T06:23:04.562Z,12.07
2018-12-12T06:25:33.308Z,12.80
2018-12-12T06:28:02.053Z,11.57
2018-12-12T06:30:30.693Z,12.10
2018-12-12T06:32:59.338Z,11.57
2018-12-12T06:35:27.947Z,11.97
2018-12-12T06:37:56.611Z,11.47
2018-12-12T06:40:25.233Z,11.37
2018-12-12T06:42:53.871Z,11.33
2018-12-12T06:45:22.544Z,11.57
2018-12-12T06:47:51.158Z,12.57
2018-12-12T06:50:19.818Z,12.60
2018-12-12T06:52:48.424Z,12.07
2018-12-12T06:55:17.027Z,12.37
2018-12-12T06:57:45.653Z,12.23
2018-12-12T07:00:14.457Z,12.37
2018-12-12T07:02:43.074Z,12.20
2018-12-12T07:05:11.724Z,12.13
2018-12-12T07:07:40.486Z,12.17
2018-12-12T07:10:09.147Z,12.23
2018-12-12T07:12:37.801Z,12.97
2018-12-12T07:15:06.860Z,11.23
2018-12-12T07:17:36.757Z,11.67
2018-12-12T07:20:05.662Z,11.00
2018-12-12T07:22:34.333Z,11.47
2018-12-12T07:25:03.015Z,13.07
2018-12-12T07:27:31.635Z,13.33
2018-12-12T07:30:00.258Z,11.07
2018-12-12T07:32:28.898Z,10.97
2018-12-12T07:34:57.532Z,10.50
2018-12-12T07:37:26.170Z,10.93
2018-12-12T07:39:56.103Z,11.73
2018-12-12T07:42:24.939Z,11.37
2018-12-12T07:44:53.586Z,11.20
2018-12-12T07:47:22.257Z,13.03
2018-12-12T07:49:50.881Z,11.43
2018-12-12T07:52:19.517Z,11.77
2018-12-12T07:54:48.117Z,10.80
2018-12-12T07:57:16.774Z,11.13
2018-12-12T07:59:45.391Z,10.30
2018-12-12T08:02:14.008Z,11.20
2018-12-12T08:04:42.618Z,10.30
2018-12-12T08:07:11.246Z,11.30
2018-12-12T08:09:39.869Z,10.17
2018-12-12T08:12:09.832Z,21.13
2018-12-12T08:14:38.704Z,10.77
2018-12-12T08:17:07.342Z,10.23
2018-12-12T08:19:35.970Z,11.10
2018-12-12T08:22:06.246Z,10.27
2018-12-12T08:24:35.055Z,9.47
2018-12-12T08:27:03.726Z,10.07
2018-12-12T08:29:32.537Z,10.00
2018-12-12T08:32:01.351Z,9.40
2018-12-12T08:34:30.312Z,10.00
2018-12-12T08:36:59.550Z,10.33
2018-12-12T08:39:28.369Z,10.67
2018-12-12T08:41:57.012Z,9.17
2018-12-12T08:44:25.687Z,9.00
2018-12-12T08:46:54.423Z,9.20
2018-12-12T08:49:23.083Z,8.60
2018-12-12T08:51:51.696Z,8.63
2018-12-12T08:54:20.298Z,8.77
2018-12-12T08:56:48.912Z,8.90
2018-12-12T08:59:17.540Z,9.07
2018-12-12T09:01:46.176Z,8.27
2018-12-12T09:04:14.822Z,8.53
2018-12-12T09:06:43.465Z,8.40
2018-12-12T09:09:12.147Z,6.90
2018-12-12T09:11:40.778Z,7.07
2018-12-12T09:14:09.440Z,7.47
2018-12-12T09:16:38.060Z,6.00
2018-12-12T09:19:06.716Z,6.83
2018-12-12T09:21:35.880Z,6.40
2018-12-12T09:24:04.643Z,6.47
2018-12-12T09:26:33.287Z,6.10
2018-12-12T09:29:01.906Z,6.50
2018-12-12T09:31:30.553Z,5.90
2018-12-12T09:33:59.163Z,5.63
2018-12-12T09:36:27.793Z,6.17
2018-12-12T09:38:56.430Z,5.80
2018-12-12T09:41:25.062Z,5.17
2018-12-12T09:43:53.681Z,5.30
2018-12-12T09:46:22.891Z,5.50
2018-12-12T09:48:51.518Z,6.17
2018-12-12T09:51:20.147Z,5.30
2018-12-12T09:53:48.757Z,5.40
2018-12-12T09:56:17.349Z,5.57
2018-12-12T09:58:46.089Z,5.03
2018-12-12T10:01:14.715Z,5.10
2018-12-12T10:03:43.374Z,5.20
2018-12-12T10:06:12.103Z,4.90
2018-12-12T10:08:41.332Z,5.03
2018-12-12T10:11:09.930Z,5.23
2018-12-12T10:13:38.573Z,4.77
2018-12-12T10:16:07.190Z,4.60
2018-12-12T10:18:35.819Z,4.63
2018-12-12T10:21:04.505Z,5.10
2018-12-12T10:23:33.104Z,4.70
2018-12-12T10:26:01.751Z,5.10
2018-12-12T10:28:30.379Z,4.43
2018-12-12T10:30:59.023Z,4.80
2018-12-12T10:33:27.654Z,4.43
2018-12-12T10:35:56.309Z,4.20
2018-12-12T10:38:24.933Z,4.80
2018-12-12T10:40:53.542Z,4.30
2018-12-12T10:43:22.198Z,4.33
2018-12-12T10:45:50.831Z,4.50
2018-12-12T10:48:19.459Z,4.40
2018-12-12T10:50:48.115Z,5.17
2018-12-12T10:53:16.751Z,4.40
2018-12-12T10:55:45.385Z,5.20
2018-12-12T10:58:13.971Z,5.13
2018-12-12T11:00:46.723Z,4.70
2018-12-12T11:03:20.386Z,4.87
2018-12-12T11:05:48.982Z,5.10
2018-12-12T11:08:17.966Z,5.67
2018-12-12T11:10:46.659Z,5.53
2018-12-12T11:13:15.259Z,5.77
2018-12-12T11:15:43.894Z,5.53
2018-12-12T11:18:12.562Z,5.90
2018-12-12T11:20:41.207Z,5.77
2018-12-12T11:23:09.838Z,6.10
2018-12-12T11:25:38.475Z,6.27
2018-12-12T11:28:07.150Z,7.13
2018-12-12T11:30:35.799Z,6.30
2018-12-12T11:33:04.441Z,6.00
2018-12-12T11:35:33.102Z,6.23
2018-12-12T11:38:01.731Z,5.83
2018-12-12T11:40:30.370Z,6.17
2018-12-12T11:42:59.065Z,6.17
2018-12-12T11:45:27.722Z,5.27
2018-12-12T11:47:56.395Z,5.50
2018-12-12T11:50:25.199Z,5.60
2018-12-12T11:52:53.850Z,6.07
2018-12-12T11:55:22.462Z,5.77
2018-12-12T11:57:51.074Z,6.87
2018-12-12T12:00:19.965Z,6.87
2018-12-12T12:02:48.633Z,6.77
2018-12-12T12:05:17.250Z,6.80
2018-12-12T12:07:45.886Z,5.87
2018-12-12T12:10:14.618Z,5.57
2018-12-12T12:12:43.352Z,6.33
2018-12-12T12:15:11.992Z,6.50
2018-12-12T12:17:40.635Z,6.20
2018-12-12T12:20:09.283Z,6.90
2018-12-12T12:22:37.962Z,6.07
2018-12-12T12:25:06.747Z,6.20
2018-12-12T12:27:35.385Z,7.13
2018-12-12T12:30:04.421Z,5.77
2018-12-12T12:32:33.098Z,5.70
2018-12-12T12:35:01.749Z,6.23
2018-12-12T12:37:30.376Z,6.03
2018-12-12T12:39:59.006Z,5.63
2018-12-12T12:42:27.627Z,5.73
2018-12-12T12:44:56.247Z,5.97
2018-12-12T12:47:24.894Z,5.67
2018-12-12T12:49:53.521Z,5.23
2018-12-12T12:52:22.174Z,5.60
2018-12-12T12:54:50.798Z,4.93
2018-12-12T12:57:19.402Z,5.37
2018-12-12T12:59:47.996Z,5.30
2018-12-12T13:02:16.596Z,4.83
2018-12-12T13:04:45.205Z,5.30
2018-12-12T13:07:13.907Z,5.63
2018-12-12T13:09:42.535Z,6.17
2018-12-12T13:12:11.260Z,4.97
2018-12-12T13:14:40.056Z,5.87
2018-12-12T13:17:08.692Z,6.67
2018-12-12T13:19:37.307Z,5.73
2018-12-12T13:22:06.058Z,6.20
2018-12-12T13:24:34.698Z,7.03
2018-12-12T13:27:03.338Z,7.30
2018-12-12T13:29:31.940Z,7.03
2018-12-12T13:32:00.570Z,6.57
2018-12-12T13:34:29.212Z,7.43
2018-12-12T13:36:57.825Z,7.43
2018-12-12T13:39:26.466Z,7.87
2018-12-12T13:41:55.108Z,7.17
2018-12-12T13:44:23.720Z,7.93
2018-12-12T13:46:52.333Z,6.63
2018-12-12T13:49:20.954Z,8.53
2018-12-12T13:51:49.561Z,7.13
2018-12-12T13:54:18.166Z,7.20
2018-12-12T13:56:46.777Z,7.20
2018-12-12T13:59:15.393Z,7.17
2018-12-12T14:01:44.187Z,7.13
2018-12-12T14:04:12.830Z,6.97
2018-12-12T14:06:41.460Z,7.77
2018-12-12T14:09:10.310Z,7.40
2018-12-12T14:11:38.943Z,6.90
2018-12-12T14:14:07.703Z,6.67
2018-12-12T14:16:36.327Z,7.30
2018-12-12T14:19:05.081Z,6.73
2018-12-12T14:21:33.687Z,7.97
2018-12-12T14:24:02.301Z,8.33
2018-12-12T14:26:30.898Z,7.50
2018-12-12T14:28:59.551Z,7.27
2018-12-12T14:31:28.170Z,6.67
2018-12-12T14:33:56.820Z,7.00
2018-12-12T14:36:25.476Z,7.47
2018-12-12T14:38:54.095Z,6.67
2018-12-12T14:41:22.729Z,6.83
2018-12-12T14:43:51.363Z,5.90
2018-12-12T14:46:19.999Z,6.27
2018-12-12T14:48:48.633Z,6.40
2018-12-12T14:51:17.295Z,7.10
2018-12-12T14:53:45.953Z,5.83
2018-12-12T14:56:14.622Z,5.97
2018-12-12T14:58:43.283Z,6.47
2018-12-12T15:01:12.163Z,6.33
2018-12-12T15:03:40.808Z,5.97
2018-12-12T15:06:09.452Z,5.07
2018-12-12T15:08:38.110Z,6.43
2018-12-12T15:11:06.776Z,5.70
2018-12-12T15:13:35.439Z,6.67
2018-12-12T15:16:04.193Z,6.37
2018-12-12T15:18:32.839Z,6.37
2018-12-12T15:21:01.489Z,5.97
2018-12-12T15:23:30.159Z,6.30
2018-12-12T15:25:58.779Z,5.90
2018-12-12T15:28:27.441Z,6.43
2018-12-12T15:30:56.059Z,5.40
2018-12-12T15:33:24.686Z,6.40
2018-12-12T15:35:53.916Z,5.40
2018-12-12T15:38:23.114Z,4.90
2018-12-12T15:40:51.749Z,4.57
2018-12-12T15:43:20.750Z,5.90
2018-12-12T15:45:49.400Z,6.20
2018-12-12T15:48:18.033Z,6.10
2018-12-12T15:50:46.664Z,5.00
2018-12-12T15:53:15.758Z,5.97
2018-12-12T15:55:44.442Z,5.77
2018-12-12T15:58:13.042Z,5.37
2018-12-12T16:00:41.899Z,6.07
2018-12-12T16:03:10.759Z,6.50
2018-12-12T16:05:39.389Z,5.87
2018-12-12T16:08:08.014Z,5.90
2018-12-12T16:10:36.694Z,5.57
2018-12-12T16:13:05.470Z,5.50
2018-12-12T16:15:34.093Z,5.50
2018-12-12T16:18:02.715Z,5.33
2018-12-12T16:20:31.719Z,5.60
2018-12-12T16:23:00.651Z,6.13
2018-12-12T16:25:29.529Z,5.60
2018-12-12T16:27:58.437Z,5.80
2018-12-12T16:30:27.362Z,6.20
2018-12-12T16:32:56.414Z,5.53
2018-12-12T16:35:26.203Z,5.93
2018-12-12T16:37:55.131Z,6.27
2018-12-12T16:40:23.967Z,7.20
2018-12-12T16:42:53.087Z,6.03
2018-12-12T16:45:21.954Z,6.10
2018-12-12T16:47:51.244Z,6.47
2018-12-12T16:50:20.124Z,6.30
2018-12-12T16:52:49.649Z,5.30
2018-12-12T16:55:18.543Z,6.07
2018-12-12T16:57:47.609Z,6.50
2018-12-12T17:00:16.545Z,5.87
2018-12-12T17:02:45.609Z,5.47
2018-12-12T17:05:14.604Z,5.43
2018-12-12T17:07:43.487Z,5.73
2018-12-12T17:10:12.453Z,6.13
2018-12-12T17:12:41.403Z,5.50
2018-12-12T17:15:10.576Z,6.13
2018-12-12T17:17:39.490Z,5.43
2018-12-12T17:20:09.001Z,6.10
2018-12-12T17:22:37.973Z,6.63
2018-12-12T17:25:07.154Z,6.00
2018-12-12T17:27:36.215Z,6.13
2018-12-12T17:30:07.808Z,5.87
2018-12-12T17:32:36.632Z,5.90
2018-12-12T17:35:09.006Z,6.57
2018-12-12T17:37:37.691Z,5.87
2018-12-12T17:40:06.478Z,6.17
2018-12-12T17:42:35.672Z,6.40
2018-12-12T17:45:04.583Z,5.90
2018-12-12T17:47:33.282Z,6.30
2018-12-12T17:50:02.682Z,6.40
2018-12-12T17:52:31.443Z,6.70
2018-12-12T17:55:00.115Z,6.10
2018-12-12T17:57:28.716Z,6.53
2018-12-12T17:59:57.508Z,5.60
2018-12-12T18:02:26.453Z,6.33
2018-12-12T18:04:55.506Z,6.67
2018-12-12T18:07:24.534Z,6.30
2018-12-12T18:09:53.439Z,5.83
2018-12-12T18:12:22.882Z,6.40
2018-12-12T18:14:51.921Z,7.00
2018-12-12T18:17:20.851Z,5.57
2018-12-12T18:19:49.718Z,6.40
2018-12-12T18:22:18.660Z,5.80
2018-12-12T18:24:47.590Z,5.30
2018-12-12T18:27:16.349Z,5.93
2018-12-12T18:29:45.211Z,6.40
2018-12-12T18:32:14.108Z,6.20
2018-12-12T18:34:43.091Z,5.87
2018-12-12T18:37:11.897Z,6.60
2018-12-12T18:39:40.704Z,5.90
2018-12-12T18:42:09.580Z,5.90
2018-12-12T18:44:39.371Z,6.77
2018-12-12T18:47:08.260Z,6.50
2018-12-12T18:49:40.529Z,6.37
2018-12-12T18:52:09.587Z,6.50
2018-12-12T18:54:38.365Z,6.40
2018-12-12T18:57:07.203Z,6.90
2018-12-12T18:59:36.192Z,5.80
2018-12-12T19:02:05.258Z,6.17
2018-12-12T19:04:34.297Z,6.93
2018-12-12T19:07:03.128Z,7.70
2018-12-12T19:09:32.124Z,6.97
2018-12-12T19:12:01.032Z,8.13
2018-12-12T19:14:30.745Z,7.40
2018-12-12T19:16:59.622Z,6.97
2018-12-12T19:19:28.529Z,7.17
2018-12-12T19:21:57.479Z,7.20
2018-12-12T19:24:26.142Z,6.60
2018-12-12T19:26:54.805Z,6.90
2018-12-12T19:29:23.437Z,7.07
2018-12-12T19:31:52.080Z,6.77
2018-12-12T19:34:20.702Z,7.20
2018-12-12T19:36:49.317Z,6.00
2018-12-12T19:39:18.911Z,6.27
2018-12-12T19:41:47.525Z,6.90
2018-12-12T19:44:16.136Z,6.90
2018-12-12T19:46:44.996Z,7.03
2018-12-12T19:49:13.644Z,7.50
2018-12-12T19:51:42.298Z,6.93
2018-12-12T19:54:10.927Z,7.30
2018-12-12T19:56:39.536Z,6.70
2018-12-12T19:59:08.201Z,7.07
2018-12-12T20:01:36.841Z,6.83
2018-12-12T20:04:05.501Z,6.90
2018-12-12T20:06:34.115Z,6.20
2018-12-12T20:09:02.927Z,6.87
2018-12-12T20:11:31.546Z,6.70
2018-12-12T20:14:00.165Z,7.33
2018-12-12T20:16:28.837Z,6.57
2018-12-12T20:18:57.542Z,7.90
2018-12-12T20:21:26.173Z,7.60
2018-12-12T20:23:54.814Z,6.87
2018-12-12T20:26:23.817Z,7.17
2018-12-12T20:28:52.471Z,6.87
2018-12-12T20:31:21.101Z,6.90
2018-12-12T20:33:49.751Z,7.20
2018-12-12T20:36:18.412Z,7.10
2018-12-12T20:38:47.148Z,6.57
2018-12-12T20:41:15.925Z,6.87
2018-12-12T20:43:44.586Z,6.70
2018-12-12T20:46:13.413Z,7.10
2018-12-12T20:48:42.192Z,7.20
2018-12-12T20:51:11.371Z,6.70
2018-12-12T20:53:39.994Z,7.77
2018-12-12T20:56:08.609Z,6.63
2018-12-12T20:58:37.438Z,7.90
2018-12-12T21:01:06.222Z,7.90
2018-12-12T21:03:35.338Z,8.10
2018-12-12T21:06:04.210Z,7.50
2018-12-12T21:08:32.957Z,7.30
2018-12-12T21:11:03.541Z,7.17
2018-12-12T21:13:33.824Z,7.07
2018-12-12T21:16:02.555Z,7.07
2018-12-12T21:18:32.180Z,7.17
2018-12-12T21:21:00.923Z,6.80
2018-12-12T21:23:29.623Z,7.30
2018-12-12T21:25:58.878Z,7.50
2018-12-12T21:28:27.617Z,7.50
2018-12-12T21:30:57.170Z,7.40
2018-12-12T21:33:25.896Z,7.30
2018-12-12T21:36:00.710Z,7.50
2018-12-12T21:38:26.359Z,7.27
2018-12-12T21:40:55.165Z,6.73
2018-12-12T21:43:23.889Z,7.03
2018-12-12T21:45:52.646Z,7.20
2018-12-12T21:48:21.435Z,6.73
2018-12-12T21:50:50.096Z,7.13
2018-12-12T21:53:18.922Z,7.00
2018-12-12T21:55:47.661Z,7.03
2018-12-12T21:58:16.426Z,7.30
2018-12-12T22:00:45.192Z,7.13
2018-12-12T22:03:13.986Z,6.73
2018-12-12T22:05:43.002Z,7.50
2018-12-12T22:08:11.735Z,6.67
2018-12-12T22:10:40.431Z,6.17
2018-12-12T22:13:09.250Z,6.30
2018-12-12T22:15:37.890Z,6.63
2018-12-12T22:18:06.542Z,5.83
2018-12-12T22:20:35.190Z,5.80
2018-12-12T22:23:03.794Z,5.57
2018-12-12T22:25:32.414Z,5.90
2018-12-12T22:28:01.047Z,4.40
2018-12-12T22:30:29.660Z,4.70
2018-12-12T22:32:58.282Z,4.30
2018-12-12T22:35:26.926Z,5.07
2018-12-12T22:37:55.546Z,4.43
2018-12-12T22:40:24.190Z,5.00
2018-12-12T22:42:52.795Z,4.50
2018-12-12T22:45:21.394Z,4.80
2018-12-12T22:47:50.582Z,4.63
2018-12-12T22:50:19.221Z,4.37
2018-12-12T22:52:48.203Z,3.97
2018-12-12T22:55:16.834Z,4.37
2018-12-12T22:57:45.442Z,3.93
2018-12-12T23:00:19.202Z,4.00
2018-12-12T23:02:47.834Z,4.17
2018-12-12T23:05:16.445Z,4.10
2018-12-12T23:07:45.045Z,4.23
2018-12-12T23:10:13.789Z,3.63
2018-12-12T23:12:42.881Z,3.60
2018-12-12T23:15:11.462Z,3.33
2018-12-12T23:17:40.039Z,3.37
2018-12-12T23:20:08.841Z,3.73
2018-12-12T23:22:37.461Z,3.63
2018-12-12T23:25:06.086Z,3.23
2018-12-12T23:27:34.707Z,3.10
2018-12-12T23:30:04.486Z,3.07
2018-12-12T23:32:33.101Z,2.90
2018-12-12T23:35:01.690Z,3.10
2018-12-12T23:37:30.299Z,3.03
2018-12-12T23:39:58.881Z,3.37
2018-12-12T23:42:27.462Z,3.10
2018-12-12T23:44:56.093Z,4.10
2018-12-12T23:47:24.716Z,2.90
2018-12-12T23:49:53.288Z,3.27
2018-12-12T23:52:21.902Z,2.90
2018-12-12T23:54:50.490Z,3.13
2018-12-12T23:57:19.080Z,3.27
2018-12-12T23:59:47.679Z,3.23
